createdAt,value
2022-11-29T00:02:03.874Z,0.41
2022-11-29T00:04:33.529Z,0.34
2022-11-29T00:07:01.611Z,0.35
2022-11-29T00:09:30.294Z,0.36
2022-11-29T00:12:13.423Z,0.34
2022-11-29T00:14:42.576Z,0.29
2022-11-29T00:17:11.059Z,0.24
2022-11-29T00:19:40.712Z,0.22
2022-11-29T00:22:08.771Z,0.25
2022-11-29T00:24:36.939Z,0.29
2022-11-29T00:27:05.262Z,0.27
2022-11-29T00:29:33.496Z,0.27
2022-11-29T00:32:01.792Z,0.28
2022-11-29T00:34:30.257Z,0.29
2022-11-29T00:36:59.769Z,0.30
2022-11-29T00:39:28.083Z,0.29
2022-11-29T00:41:57.311Z,0.32
2022-11-29T00:44:25.670Z,0.34
2022-11-29T00:46:53.804Z,0.29
2022-11-29T00:49:22.133Z,0.24
2022-11-29T00:51:50.237Z,0.30
2022-11-29T00:54:19.818Z,0.21
2022-11-29T00:56:47.922Z,0.26
2022-11-29T00:59:16.013Z,0.25
2022-11-29T01:01:44.173Z,0.25
2022-11-29T01:04:12.393Z,0.25
2022-11-29T01:06:40.526Z,0.22
2022-11-29T01:09:09.146Z,0.19
2022-11-29T01:11:38.899Z,0.20
2022-11-29T01:14:07.058Z,0.27
2022-11-29T01:16:36.605Z,0.21
2022-11-29T01:19:05.168Z,0.11
2022-11-29T01:21:33.286Z,0.15
2022-11-29T01:24:02.119Z,0.16
2022-11-29T01:26:32.035Z,0.15
2022-11-29T01:29:04.326Z,0.11
2022-11-29T01:31:36.316Z,0.15
2022-11-29T01:34:06.689Z,0.10
2022-11-29T01:36:34.969Z,0.11
2022-11-29T01:39:05.132Z,0.13
2022-11-29T01:41:35.617Z,0.17
2022-11-29T01:44:07.780Z,0.29
2022-11-29T01:46:37.489Z,0.30
2022-11-29T01:49:10.802Z,0.20
2022-11-29T01:51:42.456Z,0.27
2022-11-29T01:54:12.139Z,0.27
2022-11-29T01:56:40.950Z,0.26
2022-11-29T01:59:12.919Z,0.28
2022-11-29T02:01:41.063Z,0.24
2022-11-29T02:04:10.065Z,0.26
2022-11-29T02:06:39.679Z,0.17
2022-11-29T02:09:19.143Z,0.13
2022-11-29T02:12:09.170Z,0.04
2022-11-29T02:15:05.516Z,0.09
2022-11-29T02:17:44.950Z,0.11
2022-11-29T02:20:52.009Z,0.10
2022-11-29T02:23:41.887Z,0.04
2022-11-29T02:26:22.674Z,0.04
2022-11-29T02:29:13.370Z,-0.03
2022-11-29T02:32:20.642Z,-0.11
2022-11-29T02:35:12.290Z,-0.12
2022-11-29T02:38:00.380Z,-0.15
2022-11-29T02:41:02.332Z,-0.24
2022-11-29T02:43:45.825Z,-0.25
2022-11-29T02:46:41.083Z,-0.20
2022-11-29T02:49:17.961Z,-0.23
2022-11-29T02:51:55.254Z,-0.22
2022-11-29T02:54:28.677Z,-0.17
2022-11-29T02:57:01.626Z,-0.15
2022-11-29T02:59:42.723Z,-0.15
2022-11-29T03:02:21.666Z,-0.20
2022-11-29T03:04:55.766Z,-0.16
2022-11-29T03:07:33.659Z,-0.13
2022-11-29T03:10:09.281Z,-0.12
2022-11-29T03:12:42.840Z,-0.19
2022-11-29T03:15:24.020Z,-0.16
2022-11-29T03:18:02.952Z,-0.12
2022-11-29T03:20:41.279Z,-0.15
2022-11-29T03:23:19.970Z,-0.15
2022-11-29T03:25:56.142Z,-0.16
2022-11-29T03:28:28.526Z,-0.16
2022-11-29T03:31:05.559Z,-0.15
2022-11-29T03:33:42.794Z,-0.14
2022-11-29T03:36:19.949Z,-0.14
2022-11-29T03:38:49.589Z,-0.13
2022-11-29T03:41:25.573Z,-0.14
2022-11-29T03:44:02.374Z,-0.13
2022-11-29T03:46:36.380Z,-0.11
2022-11-29T03:49:10.222Z,-0.09
2022-11-29T03:51:52.521Z,-0.11
2022-11-29T03:54:28.231Z,-0.08
2022-11-29T03:56:56.955Z,-0.10
2022-11-29T03:59:48.395Z,-0.21
2022-11-29T04:02:58.554Z,-0.27
2022-11-29T04:06:03.238Z,-0.27
2022-11-29T04:09:16.627Z,-0.28
2022-11-29T04:12:21.744Z,-0.23
2022-11-29T04:15:23.319Z,-0.17
2022-11-29T04:18:33.557Z,-0.15
2022-11-29T04:21:23.948Z,-0.09
2022-11-29T04:24:14.330Z,-0.09
2022-11-29T04:27:21.340Z,-0.13
2022-11-29T04:30:07.213Z,-0.09
2022-11-29T04:33:01.563Z,-0.09
2022-11-29T04:35:43.266Z,-0.06
2022-11-29T04:38:40.971Z,-0.12
2022-11-29T04:41:44.361Z,-0.14
2022-11-29T04:44:27.588Z,-0.18
2022-11-29T04:47:14.052Z,-0.16
2022-11-29T04:50:05.761Z,-0.16
2022-11-29T04:52:47.309Z,-0.15
2022-11-29T04:55:29.414Z,-0.11
2022-11-29T04:58:05.475Z,-0.06
2022-11-29T05:00:44.675Z,-0.04
2022-11-29T05:03:21.556Z,-0.09
2022-11-29T05:05:56.560Z,-0.11
2022-11-29T05:08:34.518Z,-0.13
2022-11-29T05:11:11.888Z,-0.20
2022-11-29T05:13:50.119Z,-0.30
2022-11-29T05:16:33.942Z,-0.29
2022-11-29T05:19:20.184Z,-0.30
2022-11-29T05:22:00.232Z,-0.26
2022-11-29T05:24:40.573Z,-0.32
2022-11-29T05:27:19.568Z,-0.29
2022-11-29T05:29:56.602Z,-0.37
2022-11-29T05:32:32.743Z,-0.38
2022-11-29T05:35:18.837Z,-0.41
2022-11-29T05:37:51.563Z,-0.46
2022-11-29T05:40:28.549Z,-0.39
2022-11-29T05:43:08.034Z,-0.37
2022-11-29T05:45:43.889Z,-0.43
2022-11-29T05:48:25.728Z,-0.48
2022-11-29T05:51:10.695Z,-0.49
2022-11-29T05:53:48.331Z,-0.53
2022-11-29T05:56:26.985Z,-0.51
2022-11-29T05:59:00.351Z,-0.52
2022-11-29T06:01:32.946Z,-0.49
2022-11-29T06:04:14.757Z,-0.49
2022-11-29T06:06:49.301Z,-0.46
2022-11-29T06:09:24.626Z,-0.47
2022-11-29T06:11:58.572Z,-0.38
2022-11-29T06:14:43.095Z,-0.31
2022-11-29T06:17:39.640Z,-0.33
2022-11-29T06:20:27.739Z,-0.31
2022-11-29T06:23:18.056Z,-0.37
2022-11-29T06:26:08.534Z,-0.46
2022-11-29T06:28:53.095Z,-0.43
2022-11-29T06:31:26.293Z,-0.44
2022-11-29T06:34:02.312Z,-0.47
2022-11-29T06:36:37.408Z,-0.52
2022-11-29T06:39:06.693Z,-0.56
2022-11-29T06:41:35.314Z,-0.53
2022-11-29T06:44:03.945Z,-0.57
2022-11-29T06:46:45.960Z,-0.64
2022-11-29T06:49:21.300Z,-0.58
2022-11-29T06:52:03.709Z,-0.59
2022-11-29T06:54:43.343Z,-0.52
2022-11-29T06:57:20.410Z,-0.50
2022-11-29T07:00:02.912Z,-0.51
2022-11-29T07:03:14.052Z,-0.43
2022-11-29T07:05:42.939Z,-0.49
2022-11-29T07:08:17.361Z,-0.38
2022-11-29T07:10:46.531Z,-0.28
2022-11-29T07:13:15.302Z,-0.22
2022-11-29T07:15:49.686Z,-0.13
2022-11-29T07:18:28.763Z,-0.15
2022-11-29T07:21:11.631Z,-0.16
2022-11-29T07:23:47.370Z,-0.16
2022-11-29T07:26:31.367Z,-0.14
2022-11-29T07:29:12.307Z,-0.07
2022-11-29T07:31:51.288Z,-0.10
2022-11-29T07:34:25.640Z,-0.18
2022-11-29T07:37:03.045Z,-0.19
2022-11-29T07:39:43.089Z,-0.13
2022-11-29T07:42:20.242Z,-0.07
2022-11-29T07:44:57.703Z,-0.14
2022-11-29T07:47:25.778Z,-0.12
2022-11-29T07:49:53.873Z,-0.12
2022-11-29T07:52:23.575Z,-0.08
2022-11-29T07:54:52.972Z,0.09
2022-11-29T07:57:21.320Z,0.10
2022-11-29T07:59:49.675Z,0.05
2022-11-29T08:02:27.796Z,-0.02
2022-11-29T08:04:55.917Z,0.01
2022-11-29T08:07:24.055Z,0.14
2022-11-29T08:09:53.451Z,0.16
2022-11-29T08:12:21.916Z,0.09
2022-11-29T08:14:49.963Z,0.09
2022-11-29T08:17:18.976Z,0.07
2022-11-29T08:19:47.381Z,0.08
2022-11-29T08:22:15.748Z,0.13
2022-11-29T08:24:44.353Z,0.11
2022-11-29T08:27:13.923Z,0.07
2022-11-29T08:29:41.918Z,0.21
2022-11-29T08:32:10.237Z,0.24
2022-11-29T08:34:38.573Z,0.27
2022-11-29T08:37:06.693Z,0.29
2022-11-29T08:39:36.213Z,0.32
2022-11-29T08:42:04.318Z,0.34
2022-11-29T08:44:34.049Z,0.41
2022-11-29T08:47:20.145Z,0.38
2022-11-29T08:50:02.038Z,0.33
2022-11-29T08:52:48.241Z,0.24
2022-11-29T08:55:16.540Z,0.37
2022-11-29T08:57:44.550Z,0.37
2022-11-29T09:00:15.561Z,0.39
2022-11-29T09:02:43.701Z,0.29
2022-11-29T09:05:12.966Z,0.35
2022-11-29T09:07:41.148Z,0.37
2022-11-29T09:10:11.646Z,0.39
2022-11-29T09:12:41.409Z,0.61
2022-11-29T09:15:12.139Z,0.73
2022-11-29T09:17:41.640Z,0.73
2022-11-29T09:20:10.668Z,0.82
2022-11-29T09:22:38.772Z,0.84
2022-11-29T09:25:07.940Z,0.68
2022-11-29T09:27:35.929Z,0.81
2022-11-29T09:30:04.032Z,0.83
2022-11-29T09:32:32.403Z,0.90
2022-11-29T09:35:02.297Z,0.93
2022-11-29T09:37:30.437Z,0.97
2022-11-29T09:39:58.444Z,0.97
2022-11-29T09:42:41.341Z,0.86
2022-11-29T09:45:15.182Z,0.95
2022-11-29T09:48:06.422Z,0.96
2022-11-29T09:50:43.070Z,0.98
2022-11-29T09:53:26.598Z,0.96
2022-11-29T09:56:12.397Z,0.92
2022-11-29T09:58:47.555Z,0.80
2022-11-29T10:01:23.847Z,0.95
2022-11-29T10:03:55.761Z,0.91
2022-11-29T10:06:31.047Z,1.00
2022-11-29T10:09:05.494Z,1.11
2022-11-29T10:11:38.422Z,1.11
2022-11-29T10:14:13.658Z,1.15
2022-11-29T10:16:46.324Z,0.99
2022-11-29T10:19:22.715Z,0.89
2022-11-29T10:21:59.262Z,0.87
2022-11-29T10:24:30.775Z,0.97
2022-11-29T10:26:59.349Z,1.10
2022-11-29T10:29:28.056Z,0.96
2022-11-29T10:31:59.468Z,0.99
2022-11-29T10:34:28.077Z,1.05
2022-11-29T10:37:02.746Z,1.11
2022-11-29T10:39:37.367Z,1.16
2022-11-29T10:42:06.720Z,0.92
2022-11-29T10:44:35.387Z,0.89
2022-11-29T10:47:10.663Z,0.97
2022-11-29T10:49:40.351Z,1.21
2022-11-29T10:52:19.545Z,1.23
2022-11-29T10:54:48.581Z,1.11
2022-11-29T10:57:19.145Z,1.04
2022-11-29T11:00:01.048Z,1.03
2022-11-29T11:02:30.281Z,1.08
2022-11-29T11:05:00.241Z,1.24
2022-11-29T11:07:33.329Z,1.41
2022-11-29T11:10:02.789Z,1.40
2022-11-29T11:12:33.339Z,1.23
2022-11-29T11:15:28.763Z,1.30
2022-11-29T11:17:59.424Z,1.43
2022-11-29T11:20:30.330Z,1.31
2022-11-29T11:23:02.867Z,1.24
2022-11-29T11:25:34.755Z,1.26
2022-11-29T11:28:15.619Z,1.27
2022-11-29T11:30:52.338Z,1.28
2022-11-29T11:33:25.265Z,1.28
2022-11-29T11:36:05.151Z,1.24
2022-11-29T11:38:35.993Z,1.13
2022-11-29T11:41:18.025Z,1.31
2022-11-29T11:43:55.841Z,1.35
2022-11-29T11:46:24.547Z,1.29
2022-11-29T11:48:54.465Z,1.35
2022-11-29T11:51:27.212Z,1.30
2022-11-29T11:53:58.853Z,1.34
2022-11-29T11:56:36.877Z,1.34
2022-11-29T11:59:05.399Z,1.26
2022-11-29T12:01:38.746Z,1.25
2022-11-29T12:04:13.048Z,1.37
2022-11-29T12:06:50.511Z,1.44
2022-11-29T12:09:31.980Z,1.46
2022-11-29T12:12:11.033Z,1.54
2022-11-29T12:14:50.925Z,1.36
2022-11-29T12:17:28.739Z,1.42
2022-11-29T12:20:23.748Z,1.44
2022-11-29T12:23:18.566Z,1.62
2022-11-29T12:25:53.722Z,1.66
2022-11-29T12:28:29.616Z,1.77
2022-11-29T12:31:04.616Z,1.75
2022-11-29T12:33:44.950Z,1.83
2022-11-29T12:36:27.389Z,1.71
2022-11-29T12:39:05.220Z,1.71
2022-11-29T12:41:50.937Z,1.71
2022-11-29T12:44:34.587Z,1.82
2022-11-29T12:50:22.812Z,1.83
2022-11-29T12:53:03.051Z,1.84
2022-11-29T12:55:40.823Z,1.81
2022-11-29T12:58:18.837Z,1.93
2022-11-29T13:00:58.884Z,2.04
2022-11-29T13:03:38.434Z,2.05
2022-11-29T13:06:22.036Z,1.98
2022-11-29T13:09:02.886Z,2.06
2022-11-29T13:11:33.709Z,1.99
2022-11-29T13:14:41.486Z,1.94
2022-11-29T13:17:05.096Z,1.87
2022-11-29T13:19:38.088Z,1.94
2022-11-29T13:22:15.068Z,2.00
2022-11-29T13:24:45.453Z,1.97
2022-11-29T13:27:19.431Z,1.93
2022-11-29T13:29:50.292Z,1.81
2022-11-29T13:32:31.605Z,1.83
2022-11-29T13:35:04.564Z,1.96
2022-11-29T13:37:39.215Z,2.03
2022-11-29T13:40:23.134Z,1.95
2022-11-29T13:42:59.643Z,1.82
2022-11-29T13:45:38.412Z,1.80
2022-11-29T13:48:33.845Z,1.79
2022-11-29T13:51:24.243Z,1.79
2022-11-29T13:53:53.460Z,1.85
2022-11-29T13:56:36.849Z,1.75
2022-11-29T13:59:10.021Z,1.80
2022-11-29T14:01:51.659Z,1.75
2022-11-29T14:04:28.523Z,1.71
2022-11-29T14:07:12.363Z,1.63
2022-11-29T14:09:48.661Z,1.66
2022-11-29T14:12:28.848Z,1.66
2022-11-29T14:15:01.721Z,1.62
2022-11-29T14:17:46.768Z,1.61
2022-11-29T14:20:51.216Z,1.59
2022-11-29T14:23:33.234Z,1.51
2022-11-29T14:26:28.380Z,1.50
2022-11-29T14:28:57.467Z,1.43
2022-11-29T14:31:48.577Z,1.49
2022-11-29T14:34:36.328Z,1.54
2022-11-29T14:37:16.323Z,1.51
2022-11-29T14:39:47.731Z,1.48
2022-11-29T14:42:19.194Z,1.53
2022-11-29T14:44:52.304Z,1.55
2022-11-29T14:47:26.444Z,1.45
2022-11-29T14:49:59.130Z,1.50
2022-11-29T14:52:33.255Z,1.43
2022-11-29T14:55:18.534Z,1.38
2022-11-29T14:58:17.047Z,1.44
2022-11-29T15:01:02.709Z,1.46
2022-11-29T15:03:37.627Z,1.53
2022-11-29T15:06:26.871Z,1.47
2022-11-29T15:09:04.068Z,1.52
2022-11-29T15:11:40.599Z,1.47
2022-11-29T15:14:17.386Z,1.47
2022-11-29T15:17:00.704Z,1.40
2022-11-29T15:20:02.706Z,1.46
2022-11-29T15:22:44.065Z,1.43
2022-11-29T15:25:14.941Z,1.42
2022-11-29T15:27:52.411Z,1.44
2022-11-29T15:30:22.912Z,1.46
2022-11-29T15:32:51.158Z,1.43
2022-11-29T15:35:21.044Z,1.46
2022-11-29T15:37:53.288Z,1.37
2022-11-29T15:40:24.543Z,1.38
2022-11-29T15:42:58.110Z,1.34
2022-11-29T15:45:30.263Z,1.35
2022-11-29T15:48:13.633Z,1.32
2022-11-29T15:51:28.309Z,1.24
2022-11-29T15:54:12.751Z,1.27
2022-11-29T15:56:46.240Z,1.23
2022-11-29T15:59:18.356Z,1.21
2022-11-29T16:01:50.147Z,1.25
2022-11-29T16:04:21.810Z,1.24
2022-11-29T16:06:52.255Z,1.31
2022-11-29T16:09:34.376Z,1.32
2022-11-29T16:12:03.530Z,1.37
2022-11-29T16:14:32.210Z,1.38
2022-11-29T16:17:03.803Z,1.34
2022-11-29T16:19:34.759Z,1.39
2022-11-29T16:22:15.688Z,1.30
2022-11-29T16:24:55.079Z,1.35
2022-11-29T16:27:23.910Z,1.34
2022-11-29T16:29:55.425Z,1.29
2022-11-29T16:32:28.599Z,1.30
2022-11-29T16:34:58.567Z,1.35
2022-11-29T16:37:28.113Z,1.36
2022-11-29T16:40:01.482Z,1.39
2022-11-29T16:42:32.116Z,1.48
2022-11-29T16:45:34.313Z,1.44
2022-11-29T16:48:03.176Z,1.36
2022-11-29T16:50:32.748Z,1.40
2022-11-29T16:53:35.168Z,1.37
2022-11-29T16:56:05.587Z,1.41
2022-11-29T16:58:40.146Z,1.38
2022-11-29T17:01:26.391Z,1.36
2022-11-29T17:03:55.811Z,1.35
2022-11-29T17:06:25.577Z,1.33
2022-11-29T17:08:55.906Z,1.36
2022-11-29T17:11:25.323Z,1.30
2022-11-29T17:13:53.948Z,1.31
2022-11-29T17:16:23.966Z,1.34
2022-11-29T17:18:55.871Z,1.34
2022-11-29T17:21:28.482Z,1.36
2022-11-29T17:23:56.864Z,1.36
2022-11-29T17:26:27.851Z,1.37
2022-11-29T17:28:56.410Z,1.43
2022-11-29T17:31:25.704Z,1.42
2022-11-29T17:33:54.431Z,1.51
2022-11-29T17:36:23.673Z,1.50
2022-11-29T17:38:53.117Z,1.46
2022-11-29T17:41:23.874Z,1.54
2022-11-29T17:43:55.405Z,1.51
2022-11-29T17:46:28.321Z,1.57
2022-11-29T17:48:56.982Z,1.64
2022-11-29T17:54:14.416Z,1.68
2022-11-29T17:56:43.125Z,1.60
2022-11-29T17:59:13.610Z,1.68
2022-11-29T18:01:42.149Z,1.63
2022-11-29T18:04:10.532Z,1.66
2022-11-29T18:06:41.001Z,1.70
2022-11-29T18:09:11.080Z,1.68
2022-11-29T18:11:47.716Z,1.66
2022-11-29T18:14:21.033Z,1.72
2022-11-29T18:16:50.461Z,1.73
2022-11-29T18:19:20.940Z,1.65
2022-11-29T18:21:50.260Z,1.70
2022-11-29T18:24:19.864Z,1.69
2022-11-29T18:26:51.402Z,1.71
2022-11-29T18:29:22.051Z,1.73
2022-11-29T18:31:50.920Z,1.75
2022-11-29T18:34:19.341Z,1.78
2022-11-29T18:36:49.947Z,1.84
2022-11-29T18:39:19.752Z,1.81
2022-11-29T18:41:50.941Z,1.86
2022-11-29T18:44:24.792Z,1.93
2022-11-29T18:46:53.314Z,1.88
2022-11-29T18:49:21.892Z,1.88
2022-11-29T18:51:53.365Z,1.86
2022-11-29T18:54:21.928Z,1.86
2022-11-29T18:56:53.370Z,1.79
2022-11-29T18:59:25.175Z,1.88
2022-11-29T19:01:53.773Z,1.84
2022-11-29T19:04:22.796Z,1.87
2022-11-29T19:06:51.995Z,1.79
2022-11-29T19:09:25.915Z,1.75
2022-11-29T19:11:56.088Z,1.72
2022-11-29T19:14:26.382Z,1.66
2022-11-29T19:16:54.811Z,1.59
2022-11-29T19:19:24.445Z,1.67
2022-11-29T19:21:55.740Z,1.69
2022-11-29T19:24:24.348Z,1.67
2022-11-29T19:26:56.195Z,1.66
2022-11-29T19:29:26.318Z,1.64
2022-11-29T19:31:55.879Z,1.67
2022-11-29T19:34:24.447Z,1.64
2022-11-29T19:36:55.410Z,1.67
2022-11-29T19:39:24.329Z,1.64
2022-11-29T19:41:53.553Z,1.71
2022-11-29T19:44:26.518Z,1.70
2022-11-29T19:47:00.394Z,1.70
2022-11-29T19:49:28.741Z,1.69
2022-11-29T19:51:57.335Z,1.71
2022-11-29T19:54:26.521Z,1.71
2022-11-29T19:56:56.316Z,1.70
2022-11-29T19:59:24.996Z,1.72
2022-11-29T20:01:54.229Z,1.69
2022-11-29T20:04:27.375Z,1.70
2022-11-29T20:06:56.207Z,1.71
2022-11-29T20:09:24.809Z,1.69
2022-11-29T20:11:54.168Z,1.71
2022-11-29T20:14:25.382Z,1.65
2022-11-29T20:16:53.986Z,1.71
2022-11-29T20:19:23.983Z,1.72
2022-11-29T20:21:53.406Z,1.74
2022-11-29T20:24:23.779Z,1.73
2022-11-29T20:26:53.823Z,1.71
2022-11-29T20:29:27.745Z,1.77
2022-11-29T20:31:56.333Z,1.78
2022-11-29T20:34:27.439Z,1.71
2022-11-29T20:37:17.941Z,1.86
2022-11-29T20:39:52.479Z,1.89
2022-11-29T20:42:45.904Z,1.85
2022-11-29T20:45:17.645Z,1.92
2022-11-29T20:47:55.420Z,1.97
2022-11-29T20:50:27.241Z,2.00
2022-11-29T20:53:10.207Z,2.05
2022-11-29T20:55:46.439Z,2.08
2022-11-29T20:58:17.119Z,2.08
2022-11-29T21:00:45.849Z,2.12
2022-11-29T21:03:15.081Z,2.13
2022-11-29T21:05:49.017Z,2.18
2022-11-29T21:08:21.442Z,2.24
2022-11-29T21:10:50.278Z,2.28
2022-11-29T21:13:20.754Z,2.29
2022-11-29T21:15:50.737Z,2.32
2022-11-29T21:18:24.028Z,2.31
2022-11-29T21:21:03.373Z,2.29
2022-11-29T21:23:44.471Z,2.27
2022-11-29T21:26:20.629Z,2.27
2022-11-29T21:28:59.142Z,2.36
2022-11-29T21:31:27.906Z,2.34
2022-11-29T21:33:56.765Z,2.35
2022-11-29T21:36:26.804Z,2.34
2022-11-29T21:38:55.704Z,2.37
2022-11-29T21:41:24.475Z,2.39
2022-11-29T21:44:08.750Z,2.42
2022-11-29T21:46:37.820Z,2.44
2022-11-29T21:49:06.632Z,2.46
2022-11-29T21:51:36.260Z,2.47
2022-11-29T21:54:04.491Z,2.42
2022-11-29T21:56:33.037Z,2.43
2022-11-29T21:59:01.219Z,2.42
2022-11-29T22:01:29.706Z,2.41
2022-11-29T22:03:58.241Z,2.38
2022-11-29T22:06:28.138Z,2.41
2022-11-29T22:08:58.259Z,2.43
2022-11-29T22:11:35.098Z,2.42
2022-11-29T22:14:18.514Z,2.46
2022-11-29T22:16:49.244Z,2.43
2022-11-29T22:19:19.526Z,2.44
2022-11-29T22:21:49.692Z,2.45
2022-11-29T22:24:21.166Z,2.45
2022-11-29T22:26:52.450Z,2.40
2022-11-29T22:29:21.865Z,2.46
2022-11-29T22:31:52.951Z,2.53
2022-11-29T22:34:25.602Z,2.55
2022-11-29T22:36:54.153Z,2.55
2022-11-29T22:39:27.691Z,2.50
2022-11-29T22:41:55.909Z,2.50
2022-11-29T22:44:24.179Z,2.56
2022-11-29T22:46:53.011Z,2.51
2022-11-29T22:49:21.456Z,2.59
2022-11-29T22:51:50.749Z,2.61
2022-11-29T22:54:18.934Z,2.65
2022-11-29T22:56:48.795Z,2.62
2022-11-29T22:59:17.373Z,2.63
2022-11-29T23:01:45.983Z,2.58
2022-11-29T23:04:15.876Z,2.64
2022-11-29T23:06:45.302Z,2.60
2022-11-29T23:09:16.693Z,2.64
2022-11-29T23:11:45.961Z,2.67
2022-11-29T23:14:15.476Z,2.69
2022-11-29T23:16:46.936Z,2.70
2022-11-29T23:19:15.633Z,2.73
2022-11-29T23:21:45.989Z,2.72
2022-11-29T23:24:15.957Z,2.70
2022-11-29T23:26:45.675Z,2.71
2022-11-29T23:29:17.605Z,2.72
2022-11-29T23:31:48.545Z,2.77
2022-11-29T23:34:16.883Z,2.81
2022-11-29T23:36:51.137Z,2.78
2022-11-29T23:39:23.109Z,2.70
2022-11-29T23:41:51.155Z,2.79
2022-11-29T23:44:20.947Z,2.82
2022-11-29T23:46:49.234Z,2.85
2022-11-29T23:49:17.546Z,2.83
2022-11-29T23:51:45.580Z,2.82
2022-11-29T23:54:13.638Z,2.84
2022-11-29T23:56:42.894Z,2.78
2022-11-29T23:59:11.624Z,2.78
